createdAt,value
2022-12-04T00:01:58.177Z,102448.56
2022-12-04T00:07:00.745Z,102453.13
2022-12-04T00:12:03.497Z,102444.19
2022-12-04T00:17:06.046Z,102444.66
2022-12-04T00:22:09.160Z,102443.91
2022-12-04T00:27:11.694Z,102425.69
2022-12-04T00:32:15.098Z,102437.69
2022-12-04T00:37:17.596Z,102437.59
2022-12-04T00:42:20.186Z,102433.34
2022-12-04T00:47:22.742Z,102441.94
2022-12-04T00:52:25.531Z,102455.31
2022-12-04T00:57:28.232Z,102388.50
2022-12-04T01:02:31.098Z,102456.78
2022-12-04T01:07:34.198Z,102448.19
2022-12-04T01:12:36.946Z,102454.97
2022-12-04T01:17:39.577Z,102420.56
2022-12-04T01:22:42.579Z,102467.41
2022-12-04T01:27:45.458Z,102465.19
2022-12-04T01:32:48.438Z,102463.56
2022-12-04T01:37:50.999Z,102460.41
2022-12-04T01:42:54.081Z,102460.88
2022-12-04T01:48:02.603Z,102463.63
2022-12-04T01:53:05.592Z,102459.66
2022-12-04T01:58:09.090Z,102448.94
2022-12-04T02:03:13.640Z,102460.41
2022-12-04T02:08:17.404Z,102441.28
2022-12-04T02:13:46.012Z,102464.28
2022-12-04T02:19:09.956Z,102471.09
2022-12-04T02:24:57.377Z,102466.06
2022-12-04T02:30:09.991Z,102474.94
2022-12-04T02:35:38.659Z,102474.22
2022-12-04T02:41:05.703Z,102471.84
2022-12-04T02:46:18.878Z,102480.66
2022-12-04T02:51:24.900Z,102480.09
2022-12-04T02:56:33.164Z,102481.25
2022-12-04T03:01:40.342Z,102484.09
2022-12-04T03:06:47.563Z,102492.22
2022-12-04T03:11:56.942Z,102485.13
2022-12-04T03:17:06.309Z,102484.94
2022-12-04T03:22:13.372Z,102492.72
2022-12-04T03:27:53.207Z,102493.03
2022-12-04T03:33:00.373Z,102491.97
2022-12-04T03:38:21.612Z,102497.59
2022-12-04T03:43:55.672Z,102502.31
2022-12-04T03:49:09.378Z,102493.66
2022-12-04T03:54:29.328Z,102488.78
2022-12-04T03:59:56.402Z,102512.56
2022-12-04T04:05:01.582Z,102489.47
2022-12-04T04:10:13.058Z,102510.63
2022-12-04T04:15:36.543Z,102511.47
2022-12-04T04:21:03.276Z,102507.69
2022-12-04T04:26:08.107Z,102514.31
2022-12-04T04:31:51.128Z,102519.66
2022-12-04T04:37:07.098Z,102521.22
2022-12-04T04:42:25.051Z,102471.19
2022-12-04T04:47:34.524Z,102540.22
2022-12-04T04:52:41.298Z,102533.56
2022-12-04T04:57:43.961Z,102537.03
2022-12-04T05:02:49.517Z,102539.19
2022-12-04T05:07:52.205Z,102536.38
2022-12-04T05:12:54.862Z,102533.66
2022-12-04T05:17:57.390Z,102535.66
2022-12-04T05:22:59.944Z,102517.97
2022-12-04T05:28:02.458Z,102548.06
2022-12-04T05:33:05.054Z,102549.56
2022-12-04T05:38:07.641Z,102552.91
2022-12-04T05:43:10.196Z,102547.06
2022-12-04T05:48:12.861Z,102542.34
2022-12-04T05:53:15.451Z,102564.69
2022-12-04T05:58:17.958Z,102554.63
2022-12-04T06:03:21.227Z,102545.53
2022-12-04T06:08:23.831Z,102493.66
2022-12-04T06:13:26.467Z,102550.28
2022-12-04T06:18:29.107Z,102554.22
2022-12-04T06:23:31.650Z,102564.50
2022-12-04T06:28:35.971Z,102563.75
2022-12-04T06:33:39.702Z,102534.31
2022-12-04T06:38:43.010Z,102569.97
2022-12-04T06:43:45.930Z,102560.44
2022-12-04T06:48:49.028Z,102524.47
2022-12-04T06:53:52.072Z,102568.19
2022-12-04T06:59:06.804Z,102567.72
2022-12-04T07:04:16.145Z,102569.38
2022-12-04T07:09:18.985Z,102575.69
2022-12-04T07:14:21.965Z,102575.50
2022-12-04T07:19:24.807Z,102489.91
2022-12-04T07:24:27.527Z,102559.22
2022-12-04T07:29:31.051Z,102581.22
2022-12-04T07:34:35.826Z,102550.78
2022-12-04T07:39:38.376Z,102602.09
2022-12-04T07:44:41.267Z,102586.00
2022-12-04T07:49:43.999Z,102590.88
2022-12-04T07:54:46.775Z,102552.50
2022-12-04T07:59:49.338Z,102595.56
2022-12-04T08:04:52.447Z,102592.19
2022-12-04T08:09:56.182Z,102592.63
2022-12-04T08:15:00.146Z,102559.59
2022-12-04T08:20:03.183Z,102556.56
2022-12-04T08:25:06.443Z,102575.63
2022-12-04T08:30:09.622Z,102547.34
2022-12-04T08:35:12.183Z,102590.97
2022-12-04T08:40:15.463Z,102592.06
2022-12-04T08:45:18.046Z,102583.06
2022-12-04T08:50:20.711Z,102589.00
2022-12-04T08:55:23.414Z,102579.22
2022-12-04T09:00:27.860Z,102580.47
2022-12-04T09:05:31.205Z,102575.31
2022-12-04T09:10:37.221Z,102579.50
2022-12-04T09:15:41.026Z,102583.50
2022-12-04T09:20:43.598Z,102571.59
2022-12-04T09:25:46.176Z,102573.97
2022-12-04T09:31:04.393Z,102553.03
2022-12-04T09:36:07.259Z,102571.34
2022-12-04T09:41:40.969Z,102576.16
2022-12-04T09:46:52.503Z,102565.28
2022-12-04T09:51:57.119Z,102570.50
2022-12-04T09:57:12.527Z,102538.69
2022-12-04T10:02:36.628Z,102574.19
2022-12-04T10:08:00.001Z,102570.63
2022-12-04T10:13:11.571Z,102569.59
2022-12-04T10:18:23.613Z,102559.03
2022-12-04T10:23:37.718Z,102555.59
2022-12-04T10:28:53.555Z,102546.97
2022-12-04T10:34:05.661Z,102551.88
2022-12-04T10:39:22.063Z,102552.63
2022-12-04T10:44:24.800Z,102528.06
2022-12-04T10:49:29.774Z,102541.91
2022-12-04T10:55:02.031Z,102539.25
2022-12-04T11:00:35.126Z,102530.03
2022-12-04T11:05:45.582Z,102529.13
2022-12-04T11:11:01.455Z,102521.41
2022-12-04T11:16:06.491Z,102536.41
2022-12-04T11:21:16.563Z,102513.06
2022-12-04T11:26:37.223Z,102526.91
2022-12-04T11:31:41.156Z,102526.75
2022-12-04T11:36:43.986Z,102526.47
2022-12-04T11:41:47.201Z,102520.50
2022-12-04T11:46:58.619Z,102523.63
2022-12-04T11:52:45.979Z,102526.50
2022-12-04T11:58:06.644Z,102519.22
2022-12-04T12:03:28.184Z,102529.16
2022-12-04T12:09:17.003Z,102514.47
2022-12-04T12:14:34.190Z,102510.84
2022-12-04T12:20:01.208Z,102525.09
2022-12-04T12:25:27.102Z,102524.03
2022-12-04T12:30:51.648Z,102519.72
2022-12-04T12:36:08.370Z,102522.53
2022-12-04T12:41:10.760Z,102519.69
2022-12-04T12:46:21.072Z,102523.69
2022-12-04T12:51:35.356Z,102526.44
2022-12-04T12:56:46.305Z,102524.03
2022-12-04T13:02:02.506Z,102523.09
2022-12-04T13:07:24.003Z,102529.94
2022-12-04T13:12:27.926Z,102529.34
2022-12-04T13:17:39.663Z,102516.13
2022-12-04T13:22:42.090Z,102526.59
2022-12-04T13:28:17.167Z,102526.59
2022-12-04T13:33:45.839Z,102526.09
2022-12-04T13:39:19.127Z,102533.94
2022-12-04T13:44:24.302Z,102534.22
2022-12-04T13:49:33.158Z,102522.47
2022-12-04T13:54:37.198Z,102527.75
2022-12-04T13:59:41.154Z,102529.16
2022-12-04T14:05:00.261Z,102525.19
2022-12-04T14:10:23.581Z,102527.66
2022-12-04T14:15:31.559Z,102520.38
2022-12-04T14:20:37.177Z,102454.03
2022-12-04T14:25:40.893Z,102519.03
2022-12-04T14:30:45.851Z,102504.59
2022-12-04T14:35:56.253Z,102531.81
2022-12-04T14:41:01.801Z,102523.03
2022-12-04T14:46:13.036Z,102521.09
2022-12-04T14:51:34.898Z,102493.56
2022-12-04T14:57:02.567Z,102522.16
2022-12-04T15:02:11.620Z,102515.09
2022-12-04T15:07:33.331Z,102520.84
2022-12-04T15:12:42.721Z,102514.94
2022-12-04T15:18:10.035Z,102518.53
2022-12-04T15:23:33.288Z,102492.94
2022-12-04T15:28:54.855Z,102513.22
2022-12-04T15:34:01.290Z,102505.22
2022-12-04T15:39:05.362Z,102509.44
2022-12-04T15:44:49.973Z,102511.81
2022-12-04T15:49:52.899Z,102484.03
2022-12-04T15:54:59.925Z,102508.84
2022-12-04T16:00:05.850Z,102506.97
2022-12-04T16:05:34.975Z,102510.13
2022-12-04T16:10:38.206Z,102522.56
2022-12-04T16:15:43.921Z,102502.75
2022-12-04T16:20:46.527Z,102510.69
2022-12-04T16:25:53.433Z,102498.22
2022-12-04T16:30:57.399Z,102516.94
2022-12-04T16:36:00.035Z,102515.25
2022-12-04T16:41:05.211Z,102522.38
2022-12-04T16:46:16.188Z,102515.31
2022-12-04T16:51:23.512Z,102490.22
2022-12-04T16:56:26.137Z,102511.50
2022-12-04T17:01:35.521Z,102448.66
2022-12-04T17:06:38.753Z,102499.97
2022-12-04T17:11:42.103Z,102511.69
2022-12-04T17:16:47.136Z,102515.81
2022-12-04T17:21:49.982Z,102517.84
2022-12-04T17:26:52.514Z,102516.19
2022-12-04T17:31:56.149Z,102514.72
2022-12-04T17:36:58.870Z,102509.94
2022-12-04T17:42:01.474Z,102475.56
2022-12-04T17:47:04.524Z,102501.56
2022-12-04T17:52:07.920Z,102499.56
2022-12-04T17:57:10.548Z,102461.75
2022-12-04T18:02:13.303Z,102468.72
2022-12-04T18:07:15.998Z,102483.03
2022-12-04T18:12:18.914Z,102485.91
2022-12-04T18:17:21.935Z,102477.03
2022-12-04T18:22:24.551Z,102481.16
2022-12-04T18:27:27.387Z,102492.69
2022-12-04T18:32:30.783Z,102495.22
2022-12-04T18:37:34.150Z,102491.09
2022-12-04T18:42:37.146Z,102501.34
2022-12-04T18:47:39.740Z,102487.22
2022-12-04T18:52:42.391Z,102476.50
2022-12-04T18:57:45.285Z,102477.63
2022-12-04T19:02:47.867Z,102480.72
2022-12-04T19:07:51.520Z,102468.06
2022-12-04T19:12:54.327Z,102461.06
2022-12-04T19:17:57.047Z,102449.28
2022-12-04T19:22:59.690Z,102464.66
2022-12-04T19:28:03.290Z,102475.78
2022-12-04T19:33:06.179Z,102476.84
2022-12-04T19:38:09.131Z,102482.22
2022-12-04T19:43:14.665Z,102459.84
2022-12-04T19:48:17.260Z,102464.31
2022-12-04T19:53:19.979Z,102479.50
2022-12-04T19:58:26.175Z,102449.81
2022-12-04T20:03:28.870Z,102400.09
2022-12-04T20:08:31.474Z,102455.53
2022-12-04T20:13:37.468Z,102457.34
2022-12-04T20:18:41.651Z,102457.50
2022-12-04T20:23:46.596Z,102457.66
2022-12-04T20:28:49.746Z,102459.28
2022-12-04T20:33:54.737Z,102473.13
2022-12-04T20:38:58.659Z,102466.44
2022-12-04T20:44:03.492Z,102460.91
2022-12-04T20:49:20.618Z,102446.06
2022-12-04T20:54:24.641Z,102463.97
2022-12-04T20:59:27.331Z,102462.72
2022-12-04T21:04:30.037Z,102443.22
2022-12-04T21:09:32.774Z,102448.63
2022-12-04T21:14:54.003Z,102438.44
2022-12-04T21:19:56.784Z,102444.53
2022-12-04T21:25:00.405Z,102441.84
2022-12-04T21:30:03.253Z,102422.66
2022-12-04T21:35:06.730Z,102428.38
2022-12-04T21:40:10.920Z,102417.41
2022-12-04T21:45:13.526Z,102409.56
2022-12-04T21:50:16.224Z,102415.50
2022-12-04T21:55:18.759Z,102424.50
2022-12-04T22:00:21.389Z,102417.78
2022-12-04T22:05:24.084Z,102411.00
2022-12-04T22:10:26.690Z,102388.66
2022-12-04T22:15:29.283Z,102403.66
2022-12-04T22:20:32.731Z,102389.38
2022-12-04T22:25:38.112Z,102380.03
2022-12-04T22:30:40.830Z,102382.91
2022-12-04T22:35:43.724Z,102384.91
2022-12-04T22:40:46.802Z,102386.34
2022-12-04T22:45:49.396Z,102382.88
2022-12-04T22:51:15.331Z,102370.22
2022-12-04T22:56:29.162Z,102359.84
2022-12-04T23:01:34.008Z,102373.09
2022-12-04T23:06:36.731Z,102369.38
2022-12-04T23:11:40.327Z,102365.03
2022-12-04T23:16:43.165Z,102310.66
2022-12-04T23:21:50.761Z,102356.38
2022-12-04T23:26:57.781Z,102359.22
2022-12-04T23:32:00.540Z,102354.94
2022-12-04T23:37:03.550Z,102313.88
2022-12-04T23:42:06.255Z,102330.78
2022-12-04T23:47:08.801Z,102340.25
2022-12-04T23:52:11.430Z,102327.06
2022-12-04T23:57:13.895Z,102346.19
